createdAt,value
2018-05-10T00:00:51.817Z,16.37
2018-05-10T00:03:19.939Z,18.13
2018-05-10T00:05:48.039Z,18.20
2018-05-10T00:18:01.135Z,20.47
2018-05-10T00:20:30.051Z,18.37
2018-05-10T00:22:58.153Z,19.83
2018-05-10T00:25:26.267Z,20.47
2018-05-10T00:27:55.377Z,19.07
2018-05-10T00:30:23.519Z,21.20
2018-05-10T00:32:51.631Z,20.63
2018-05-10T00:35:19.764Z,19.27
2018-05-10T00:37:47.866Z,24.27
2018-05-10T00:40:15.971Z,23.10
2018-05-10T00:42:44.139Z,25.80
2018-05-10T00:45:13.163Z,18.77
2018-05-10T00:47:41.279Z,15.60
2018-05-10T00:50:09.848Z,14.30
2018-05-10T00:52:37.907Z,15.47
2018-05-10T00:55:06.028Z,17.30
2018-05-10T00:57:39.713Z,12.17
2018-05-10T01:00:13.335Z,14.43
2018-05-10T01:02:41.438Z,14.07
2018-05-10T01:05:09.832Z,15.57
2018-05-10T01:07:37.924Z,17.13
2018-05-10T01:10:06.039Z,15.97
2018-05-10T01:12:34.990Z,12.83
2018-05-10T01:15:03.104Z,16.87
2018-05-10T01:17:31.218Z,11.63
2018-05-10T01:19:59.310Z,16.03
2018-05-10T01:22:27.411Z,15.20
2018-05-10T01:24:55.490Z,12.63
2018-05-10T01:27:23.582Z,13.63
2018-05-10T01:29:51.676Z,18.30
2018-05-10T01:32:19.797Z,11.63
2018-05-10T01:35:00.580Z,13.20
2018-05-10T01:37:28.670Z,9.40
2018-05-10T01:39:56.802Z,11.73
2018-05-10T01:42:24.904Z,12.80
2018-05-10T01:44:53.030Z,10.00
2018-05-10T01:47:21.139Z,10.33
2018-05-10T01:49:49.280Z,11.13
2018-05-10T01:52:17.373Z,11.00
2018-05-10T01:54:45.498Z,12.40
2018-05-10T01:57:13.585Z,8.87
2018-05-10T01:59:41.672Z,6.90
2018-05-10T02:02:09.818Z,11.93
2018-05-10T02:04:48.596Z,8.17
2018-05-10T02:07:16.677Z,8.03
2018-05-10T02:09:44.788Z,9.90
2018-05-10T02:12:12.908Z,7.33
2018-05-10T02:14:41.075Z,9.47
2018-05-10T02:17:09.128Z,9.93
2018-05-10T02:19:37.235Z,7.10
2018-05-10T02:22:05.712Z,7.10
2018-05-10T02:24:33.819Z,8.20
2018-05-10T02:27:01.900Z,6.90
2018-05-10T02:29:31.789Z,10.13
2018-05-10T02:31:59.888Z,6.67
2018-05-10T02:34:28.005Z,9.87
2018-05-10T02:37:01.685Z,9.63
2018-05-10T02:39:35.194Z,9.77
2018-05-10T02:42:03.960Z,11.87
2018-05-10T02:44:32.070Z,8.20
2018-05-10T02:47:00.173Z,5.80
2018-05-10T02:49:28.278Z,15.10
2018-05-10T02:51:57.132Z,8.20
2018-05-10T02:54:25.244Z,7.40
2018-05-10T02:56:53.738Z,6.57
2018-05-10T03:12:22.701Z,12.23
2018-05-10T03:14:50.810Z,8.73
2018-05-10T03:17:18.914Z,6.87
2018-05-10T03:19:46.999Z,8.83
2018-05-10T03:22:15.200Z,5.77
2018-05-10T03:24:43.344Z,10.60
2018-05-10T03:27:11.424Z,8.07
2018-05-10T03:29:39.528Z,9.53
2018-05-10T03:32:07.624Z,10.43
2018-05-10T03:34:35.768Z,13.47
2018-05-10T03:37:04.032Z,12.73
2018-05-10T03:39:37.826Z,10.80
2018-05-10T03:42:05.919Z,12.73
2018-05-10T03:44:34.610Z,9.77
2018-05-10T03:47:02.740Z,11.27
2018-05-10T03:49:30.839Z,10.53
2018-05-10T03:51:58.945Z,12.03
2018-05-10T03:54:27.056Z,10.50
2018-05-10T03:56:55.152Z,18.43
2018-05-10T03:59:23.249Z,12.97
2018-05-10T04:01:52.091Z,9.87
2018-05-10T04:04:44.244Z,7.97
2018-05-10T04:07:24.132Z,10.83
2018-05-10T04:10:04.094Z,10.03
2018-05-10T04:12:32.684Z,21.13
2018-05-10T04:15:00.819Z,14.17
2018-05-10T04:17:28.890Z,15.10
2018-05-10T04:19:57.360Z,18.23
2018-05-10T04:22:25.788Z,11.37
2018-05-10T04:24:58.842Z,11.10
2018-05-10T04:27:27.796Z,16.50
2018-05-10T04:29:56.546Z,21.87
2018-05-10T04:32:24.692Z,18.63
2018-05-10T04:34:58.230Z,16.40
2018-05-10T04:37:26.345Z,14.13
2018-05-10T04:39:54.435Z,13.33
2018-05-10T04:42:23.475Z,17.77
2018-05-10T04:44:51.591Z,15.50
2018-05-10T04:47:20.599Z,16.37
2018-05-10T04:49:48.687Z,17.40
2018-05-10T04:52:16.792Z,13.07
2018-05-10T04:54:44.968Z,15.70
2018-05-10T04:57:13.071Z,14.03
2018-05-10T04:59:41.190Z,18.33
2018-05-10T05:02:09.323Z,16.77
2018-05-10T05:04:37.439Z,21.90
2018-05-10T05:07:06.466Z,19.43
2018-05-10T05:09:35.330Z,22.27
2018-05-10T05:12:03.541Z,18.57
2018-05-10T05:14:31.532Z,30.07
2018-05-10T05:16:59.619Z,23.33
2018-05-10T05:32:28.610Z,20.87
2018-05-10T05:34:56.740Z,22.97
2018-05-10T05:37:25.196Z,26.37
2018-05-10T05:39:53.279Z,18.43
2018-05-10T05:42:21.389Z,25.43
2018-05-10T05:44:49.486Z,24.97
2018-05-10T05:47:17.591Z,25.87
2018-05-10T05:49:45.752Z,23.17
2018-05-10T05:52:13.846Z,23.07
2018-05-10T05:54:42.246Z,21.37
2018-05-10T05:57:10.346Z,20.70
2018-05-10T05:59:38.445Z,22.33
2018-05-10T06:02:07.223Z,24.13
2018-05-10T06:04:35.340Z,19.57
2018-05-10T06:07:04.289Z,20.60
2018-05-10T06:09:32.410Z,26.03
2018-05-10T06:12:00.518Z,18.73
2018-05-10T06:14:28.608Z,20.53
2018-05-10T06:16:56.718Z,22.10
2018-05-10T06:19:25.456Z,27.73
2018-05-10T06:21:53.550Z,26.53
2018-05-10T06:24:22.396Z,27.73
2018-05-10T06:26:50.530Z,26.70
2018-05-10T06:29:18.635Z,21.30
2018-05-10T06:31:46.728Z,24.53
2018-05-10T06:34:14.861Z,28.30
2018-05-10T06:36:42.952Z,25.13
2018-05-10T06:39:11.752Z,21.70
2018-05-10T06:41:39.859Z,21.00
2018-05-10T06:44:09.212Z,19.17
2018-05-10T06:46:37.345Z,28.97
2018-05-10T06:49:05.434Z,19.23
2018-05-10T06:51:33.563Z,20.57
2018-05-10T06:54:01.668Z,24.03
2018-05-10T06:56:29.767Z,24.33
2018-05-10T06:58:57.883Z,22.10
2018-05-10T07:01:26.243Z,17.17
2018-05-10T07:03:55.131Z,28.30
2018-05-10T07:06:23.227Z,28.13
2018-05-10T07:08:51.355Z,20.40
2018-05-10T07:11:19.472Z,23.07
2018-05-10T07:13:47.988Z,21.37
2018-05-10T07:16:16.107Z,21.37
2018-05-10T07:18:44.201Z,20.43
2018-05-10T07:21:17.971Z,23.97
2018-05-10T07:23:46.152Z,17.00
2018-05-10T07:26:14.225Z,27.33
2018-05-10T07:28:42.349Z,21.70
2018-05-10T07:31:10.437Z,26.50
2018-05-10T07:33:38.528Z,25.47
2018-05-10T07:36:06.675Z,28.10
2018-05-10T07:38:34.755Z,33.23
2018-05-10T07:41:02.860Z,31.53
2018-05-10T07:43:30.980Z,32.13
2018-05-10T07:45:59.088Z,32.03
2018-05-10T07:48:27.207Z,30.80
2018-05-10T07:50:55.307Z,36.60
2018-05-10T07:53:23.424Z,33.50
2018-05-10T07:55:51.553Z,41.33
2018-05-10T07:58:25.205Z,33.30
2018-05-10T08:00:56.029Z,36.33
2018-05-10T08:03:24.163Z,36.83
2018-05-10T08:05:52.280Z,37.87
2018-05-10T08:08:20.366Z,30.97
2018-05-10T08:10:48.705Z,29.07
2018-05-10T08:13:16.786Z,27.30
2018-05-10T08:15:44.940Z,24.33
2018-05-10T08:18:13.070Z,17.63
2018-05-10T08:20:41.167Z,28.50
2018-05-10T08:23:09.275Z,24.07
2018-05-10T08:25:37.370Z,21.40
2018-05-10T08:28:05.473Z,20.70
2018-05-10T08:30:33.584Z,20.40
2018-05-10T08:33:01.684Z,22.20
2018-05-10T08:35:29.774Z,25.00
2018-05-10T08:37:57.907Z,23.37
2018-05-10T08:40:25.997Z,32.30
2018-05-10T08:42:54.099Z,29.37
2018-05-10T08:45:22.199Z,33.17
2018-05-10T08:47:50.364Z,33.30
2018-05-10T08:50:18.467Z,36.50
2018-05-10T08:52:46.555Z,42.27
2018-05-10T08:55:14.669Z,36.30
2018-05-10T09:07:27.872Z,26.80
2018-05-10T09:09:55.889Z,24.27
2018-05-10T09:12:24.389Z,16.70
2018-05-10T09:14:52.541Z,21.93
2018-05-10T09:17:20.646Z,19.17
2018-05-10T09:32:48.767Z,9.17
2018-05-10T09:35:16.851Z,10.90
2018-05-10T09:37:44.969Z,13.17
2018-05-10T09:40:13.140Z,18.73
2018-05-10T09:42:41.240Z,11.23
2018-05-10T09:45:09.327Z,11.27
2018-05-10T09:47:37.452Z,11.43
2018-05-10T09:50:05.545Z,16.57
2018-05-10T09:52:33.722Z,14.27
2018-05-10T09:55:01.747Z,11.77
2018-05-10T09:57:29.858Z,10.53
2018-05-10T09:59:57.976Z,9.67
2018-05-10T10:02:26.396Z,9.47
2018-05-10T10:04:54.487Z,10.50
2018-05-10T10:07:23.593Z,10.77
2018-05-10T10:09:51.688Z,8.03
2018-05-10T10:12:20.628Z,6.17
2018-05-10T10:14:48.744Z,12.17
2018-05-10T10:17:16.827Z,7.67
2018-05-10T10:19:44.939Z,14.10
2018-05-10T10:22:13.082Z,8.33
2018-05-10T10:24:41.184Z,5.83
2018-05-10T10:27:09.287Z,8.33
2018-05-10T10:29:37.411Z,14.27
2018-05-10T10:32:05.862Z,9.40
2018-05-10T10:34:33.978Z,9.33
2018-05-10T10:37:02.028Z,15.33
2018-05-10T10:39:30.108Z,6.83
2018-05-10T10:41:58.188Z,9.60
2018-05-10T10:44:27.187Z,9.70
2018-05-10T10:46:55.319Z,7.57
2018-05-10T10:49:23.408Z,8.50
2018-05-10T10:51:51.580Z,11.47
2018-05-10T10:54:19.692Z,7.00
2018-05-10T10:56:47.778Z,5.97
2018-05-10T10:59:21.341Z,7.20
2018-05-10T11:01:49.553Z,7.03
2018-05-10T11:04:17.621Z,16.07
2018-05-10T11:06:46.380Z,6.30
2018-05-10T11:09:14.659Z,5.80
2018-05-10T11:11:43.521Z,4.77
2018-05-10T11:14:11.999Z,4.30
2018-05-10T11:16:40.246Z,9.27
2018-05-10T11:19:08.321Z,8.37
2018-05-10T11:21:36.422Z,9.50
2018-05-10T11:37:04.548Z,8.73
2018-05-10T11:39:38.240Z,3.43
2018-05-10T11:42:06.354Z,8.23
2018-05-10T11:44:35.490Z,8.13
2018-05-10T11:47:03.566Z,5.40
2018-05-10T11:49:31.681Z,4.93
2018-05-10T11:51:59.807Z,7.10
2018-05-10T11:54:27.919Z,7.97
2018-05-10T11:56:56.588Z,5.97
2018-05-10T11:59:24.979Z,6.43
2018-05-10T12:01:53.569Z,4.83
2018-05-10T12:04:21.713Z,4.10
2018-05-10T12:06:49.791Z,6.53
2018-05-10T12:09:17.927Z,5.97
2018-05-10T12:11:46.042Z,5.43
2018-05-10T12:14:14.309Z,9.47
2018-05-10T12:16:48.854Z,6.83
2018-05-10T12:19:17.003Z,5.87
2018-05-10T12:21:46.001Z,5.47
2018-05-10T12:24:14.272Z,4.03
2018-05-10T12:39:42.393Z,5.13
2018-05-10T12:42:10.474Z,4.30
2018-05-10T12:44:38.566Z,4.87
2018-05-10T12:47:06.701Z,6.70
2018-05-10T12:49:34.794Z,5.20
2018-05-10T12:52:02.870Z,4.83
2018-05-10T12:54:30.981Z,4.47
2018-05-10T12:56:59.089Z,5.20
2018-05-10T12:59:27.196Z,5.33
2018-05-10T13:01:55.360Z,4.93
2018-05-10T13:04:23.710Z,4.97
2018-05-10T13:06:51.845Z,4.27
2018-05-10T13:09:19.918Z,5.37
2018-05-10T13:11:48.011Z,5.83
2018-05-10T13:14:16.130Z,6.00
2018-05-10T13:16:45.000Z,5.40
2018-05-10T13:19:13.078Z,3.27
2018-05-10T13:21:41.921Z,9.40
2018-05-10T13:24:11.178Z,6.53
2018-05-10T13:26:39.260Z,4.70
2018-05-10T13:29:08.232Z,11.73
2018-05-10T13:44:36.347Z,9.07
2018-05-10T13:47:04.582Z,3.90
2018-05-10T13:49:33.267Z,6.13
2018-05-10T13:52:02.376Z,6.17
2018-05-10T13:54:30.503Z,5.67
2018-05-10T13:56:59.326Z,5.20
2018-05-10T13:59:27.421Z,8.77
2018-05-10T14:01:55.544Z,8.00
2018-05-10T14:04:24.848Z,6.00
2018-05-10T14:06:52.978Z,4.67
2018-05-10T14:09:21.056Z,8.17
2018-05-10T14:11:49.170Z,5.60
2018-05-10T14:14:17.299Z,7.63
2018-05-10T14:16:45.400Z,9.07
2018-05-10T14:19:13.489Z,5.80
2018-05-10T14:21:41.603Z,6.93
2018-05-10T14:24:09.742Z,8.20
2018-05-10T14:26:37.828Z,6.33
2018-05-10T14:29:05.940Z,7.37
2018-05-10T14:31:39.572Z,8.00
2018-05-10T14:34:07.720Z,6.53
2018-05-10T14:36:36.506Z,6.87
2018-05-10T14:39:06.127Z,8.90
2018-05-10T14:41:34.226Z,9.73
2018-05-10T14:44:02.367Z,9.07
2018-05-10T14:46:30.468Z,10.97
2018-05-10T14:48:58.569Z,9.33
2018-05-10T14:51:26.716Z,13.43
2018-05-10T14:53:54.815Z,6.50
2018-05-10T14:56:22.924Z,9.47
2018-05-10T14:58:51.072Z,11.00
2018-05-10T15:01:19.903Z,8.07
2018-05-10T15:03:48.000Z,9.63
2018-05-10T15:06:16.086Z,13.03
2018-05-10T15:08:44.237Z,10.83
2018-05-10T15:11:13.175Z,12.47
2018-05-10T15:13:46.865Z,8.90
2018-05-10T15:16:15.013Z,8.10
2018-05-10T15:18:43.106Z,7.93
2018-05-10T15:21:11.194Z,11.70
2018-05-10T15:23:39.354Z,9.33
2018-05-10T15:26:07.404Z,8.37
2018-05-10T15:28:35.494Z,10.90
2018-05-10T15:31:03.646Z,9.47
2018-05-10T15:33:31.757Z,13.77
2018-05-10T15:35:59.860Z,10.87
2018-05-10T15:38:28.932Z,8.40
2018-05-10T15:40:57.023Z,8.87
2018-05-10T15:43:25.137Z,8.20
2018-05-10T15:45:53.233Z,16.07
2018-05-10T15:48:21.328Z,6.57
2018-05-10T15:50:49.893Z,9.43
2018-05-10T15:53:23.611Z,7.57
2018-05-10T15:55:53.458Z,8.53
2018-05-10T15:58:21.538Z,8.07
2018-05-10T16:00:49.717Z,5.73
2018-05-10T16:03:17.817Z,9.03
2018-05-10T16:05:45.927Z,4.33
2018-05-10T16:08:14.023Z,10.63
2018-05-10T16:10:42.115Z,4.40
2018-05-10T16:13:10.241Z,10.30
2018-05-10T16:15:38.387Z,7.47
2018-05-10T16:18:07.392Z,8.60
2018-05-10T16:20:35.878Z,12.20
2018-05-10T16:23:04.313Z,10.63
2018-05-10T16:25:32.409Z,7.70
2018-05-10T16:28:01.363Z,9.13
2018-05-10T16:30:35.006Z,7.00
2018-05-10T16:33:03.107Z,9.37
2018-05-10T16:35:31.207Z,7.83
2018-05-10T16:38:00.039Z,6.87
2018-05-10T16:40:28.157Z,3.87
2018-05-10T16:55:56.282Z,5.70
2018-05-10T16:58:24.375Z,13.37
2018-05-10T17:00:52.903Z,7.63
2018-05-10T17:03:21.031Z,11.60
2018-05-10T17:05:49.749Z,8.53
2018-05-10T17:08:17.964Z,8.37
2018-05-10T17:10:46.048Z,10.57
2018-05-10T17:13:14.780Z,4.80
2018-05-10T17:15:42.895Z,8.40
2018-05-10T17:18:10.972Z,9.60
2018-05-10T17:20:39.088Z,10.13
2018-05-10T17:23:07.186Z,8.43
2018-05-10T17:25:35.368Z,14.53
2018-05-10T17:28:03.474Z,17.97
2018-05-10T17:30:31.580Z,17.53
2018-05-10T17:33:00.461Z,8.57
2018-05-10T17:35:28.532Z,12.57
2018-05-10T17:37:56.807Z,9.07
2018-05-10T17:40:25.698Z,8.93
2018-05-10T17:42:53.807Z,9.93
2018-05-10T17:45:21.911Z,9.20
2018-05-10T17:47:50.607Z,10.27
2018-05-10T17:50:18.710Z,14.93
2018-05-10T17:52:46.828Z,12.37
2018-05-10T17:55:14.919Z,9.50
2018-05-10T17:57:43.012Z,11.40
2018-05-10T18:00:11.119Z,11.13
2018-05-10T18:02:39.228Z,12.23
2018-05-10T18:05:07.324Z,10.10
2018-05-10T18:07:35.423Z,7.87
2018-05-10T18:10:03.541Z,10.97
2018-05-10T18:12:32.464Z,8.30
2018-05-10T18:15:00.583Z,8.57
2018-05-10T18:17:28.697Z,10.40
2018-05-10T18:19:56.779Z,11.57
2018-05-10T18:22:25.958Z,8.93
2018-05-10T18:24:54.043Z,7.90
2018-05-10T18:27:22.150Z,9.30
2018-05-10T18:29:50.271Z,9.03
2018-05-10T18:32:18.389Z,11.07
2018-05-10T18:47:51.506Z,8.50
2018-05-10T18:50:19.579Z,7.60
2018-05-10T18:52:48.017Z,12.47
2018-05-10T18:55:21.062Z,8.77
2018-05-10T18:57:49.233Z,12.33
2018-05-10T19:00:17.328Z,12.97
2018-05-10T19:02:46.146Z,8.30
2018-05-10T19:05:14.308Z,8.33
2018-05-10T19:07:42.409Z,12.50
2018-05-10T19:10:10.519Z,5.60
2018-05-10T19:12:38.666Z,11.13
2018-05-10T19:15:06.774Z,9.87
2018-05-10T19:17:35.256Z,9.57
2018-05-10T19:20:03.388Z,12.07
2018-05-10T19:22:31.484Z,12.57
2018-05-10T19:24:59.578Z,8.93
2018-05-10T19:27:33.343Z,13.77
2018-05-10T19:30:07.031Z,7.40
2018-05-10T19:32:35.221Z,9.80
2018-05-10T19:35:03.312Z,10.17
2018-05-10T19:37:31.477Z,8.37
2018-05-10T19:39:59.593Z,8.53
2018-05-10T19:42:27.676Z,12.83
2018-05-10T19:44:55.783Z,9.87
2018-05-10T19:47:23.867Z,11.07
2018-05-10T19:49:52.431Z,8.87
2018-05-10T19:52:20.573Z,9.43
2018-05-10T19:54:48.974Z,10.17
2018-05-10T19:57:17.090Z,7.63
2018-05-10T19:59:45.204Z,13.77
2018-05-10T20:15:13.313Z,12.03
2018-05-10T20:17:41.407Z,7.53
2018-05-10T20:20:09.527Z,9.00
2018-05-10T20:22:37.635Z,8.47
2018-05-10T20:25:05.809Z,11.90
2018-05-10T20:27:33.910Z,9.60
2018-05-10T20:30:02.023Z,17.03
2018-05-10T20:32:30.218Z,12.23
2018-05-10T20:34:58.215Z,12.63
2018-05-10T20:37:31.950Z,9.40
2018-05-10T20:40:00.080Z,14.27
2018-05-10T20:42:28.182Z,12.53
2018-05-10T20:44:56.311Z,10.33
2018-05-10T20:47:24.404Z,12.20
2018-05-10T20:49:52.483Z,8.90
2018-05-10T20:52:20.795Z,13.90
2018-05-10T20:54:48.907Z,14.17
2018-05-10T20:57:17.949Z,15.53
2018-05-10T20:59:46.093Z,14.20
2018-05-10T21:02:14.231Z,16.53
2018-05-10T21:04:42.331Z,20.33
2018-05-10T21:07:10.996Z,12.17
2018-05-10T21:09:39.967Z,10.40
2018-05-10T21:12:08.053Z,13.93
2018-05-10T21:14:36.154Z,13.67
2018-05-10T21:17:04.235Z,13.50
2018-05-10T21:19:32.387Z,11.87
2018-05-10T21:22:00.495Z,17.73
2018-05-10T21:24:29.141Z,11.53
2018-05-10T21:26:58.057Z,14.20
2018-05-10T21:29:26.212Z,14.43
2018-05-10T21:31:54.584Z,11.40
2018-05-10T21:34:22.991Z,12.77
2018-05-10T21:36:51.113Z,11.63
2018-05-10T21:39:19.217Z,13.23
2018-05-10T21:41:47.335Z,14.87
2018-05-10T21:44:15.425Z,14.43
2018-05-10T21:46:43.550Z,15.53
2018-05-10T21:49:23.439Z,13.80
2018-05-10T21:51:52.356Z,13.97
2018-05-10T21:54:21.340Z,14.47
2018-05-10T21:56:49.431Z,19.77
2018-05-10T21:59:23.123Z,16.47
2018-05-10T22:01:51.239Z,10.07
2018-05-10T22:04:19.323Z,14.33
2018-05-10T22:06:47.491Z,19.63
2018-05-10T22:09:15.821Z,13.23
2018-05-10T22:11:43.915Z,13.93
2018-05-10T22:14:12.015Z,13.13
2018-05-10T22:16:46.428Z,15.33
2018-05-10T22:19:14.555Z,12.03
2018-05-10T22:21:42.734Z,13.50
2018-05-10T22:24:10.839Z,23.50
2018-05-10T22:26:38.995Z,15.57
2018-05-10T22:29:07.116Z,13.17
2018-05-10T22:31:35.229Z,12.47
2018-05-10T22:34:03.307Z,18.30
2018-05-10T22:36:31.395Z,16.40
2018-05-10T22:38:59.975Z,15.67
2018-05-10T22:41:28.062Z,10.80
2018-05-10T22:43:56.171Z,11.17
2018-05-10T22:46:24.267Z,13.40
2018-05-10T22:48:52.362Z,12.40
2018-05-10T22:51:21.383Z,19.07
2018-05-10T22:53:49.480Z,15.07
2018-05-10T22:56:24.201Z,11.87
2018-05-10T22:58:57.839Z,11.97
2018-05-10T23:01:25.967Z,14.07
2018-05-10T23:16:54.084Z,16.00
2018-05-10T23:19:22.191Z,17.33
2018-05-10T23:21:50.278Z,19.30
2018-05-10T23:24:18.393Z,18.17
2018-05-10T23:26:46.543Z,14.43
2018-05-10T23:29:15.185Z,15.53
2018-05-10T23:31:48.779Z,12.10
2018-05-10T23:34:16.867Z,12.40
2018-05-10T23:36:44.994Z,20.93
2018-05-10T23:39:13.139Z,11.60
2018-05-10T23:41:41.207Z,12.70
2018-05-10T23:44:09.292Z,12.57
2018-05-10T23:46:37.512Z,14.90
2018-05-10T23:49:05.627Z,13.50
2018-05-10T23:51:33.779Z,14.97
2018-05-10T23:54:01.875Z,15.73
2018-05-10T23:56:30.760Z,19.47
2018-05-10T23:58:58.856Z,9.23
